sensor_id;sensor_type;location;lat;lon;timestamp;pressure;altitude;pressure_sealevel;temperature;humidity
42633;BME280;28261;53.304;-6.284;2022-09-09T00:01:38;100127.44;;;13.98;100.00
42633;BME280;28261;53.304;-6.284;2022-09-09T00:03:51;100124.75;;;13.98;100.00
42633;BME280;28261;53.304;-6.284;2022-09-09T00:06:03;100123.94;;;13.97;100.00
42633;BME280;28261;53.304;-6.284;2022-09-09T00:08:13;100130.09;;;13.98;100.00
42633;BME280;28261;53.304;-6.284;2022-09-09T00:10:25;100128.41;;;13.97;100.00
42633;BME280;28261;53.304;-6.284;2022-09-09T00:12:35;100125.03;;;13.95;100.00
42633;BME280;28261;53.304;-6.284;2022-09-09T00:14:47;100127.00;;;13.93;100.00
42633;BME280;28261;53.304;-6.284;2022-09-09T00:16:55;100128.00;;;13.92;100.00
42633;BME280;28261;53.304;-6.284;2022-09-09T00:19:07;100132.59;;;13.90;100.00
42633;BME280;28261;53.304;-6.284;2022-09-09T00:21:14;100120.25;;;13.88;100.00
42633;BME280;28261;53.304;-6.284;2022-09-09T00:23:24;100129.25;;;13.87;100.00
42633;BME280;28261;53.304;-6.284;2022-09-09T00:25:33;100126.75;;;13.86;100.00
42633;BME280;28261;53.304;-6.284;2022-09-09T00:27:44;100131.22;;;13.85;100.00
42633;BME280;28261;53.304;-6.284;2022-09-09T00:29:53;100128.53;;;13.85;100.00
42633;BME280;28261;53.304;-6.284;2022-09-09T00:32:14;100125.31;;;13.82;100.00
42633;BME280;28261;53.304;-6.284;2022-09-09T00:34:23;100127.13;;;13.81;100.00
42633;BME280;28261;53.304;-6.284;2022-09-09T00:36:28;100128.09;;;13.80;100.00
42633;BME280;28261;53.304;-6.284;2022-09-09T00:38:35;100134.44;;;13.79;100.00
42633;BME280;28261;53.304;-6.284;2022-09-09T00:40:46;100127.28;;;13.80;100.00
42633;BME280;28261;53.304;-6.284;2022-09-09T00:43:03;100130.78;;;13.80;100.00
42633;BME280;28261;53.304;-6.284;2022-09-09T00:45:19;100126.44;;;13.79;100.00
42633;BME280;28261;53.304;-6.284;2022-09-09T00:47:45;100122.09;;;13.78;100.00
42633;BME280;28261;53.304;-6.284;2022-09-09T00:49:57;100121.13;;;13.79;100.00
42633;BME280;28261;53.304;-6.284;2022-09-09T00:52:21;100117.75;;;13.77;100.00
42633;BME280;28261;53.304;-6.284;2022-09-09T00:54:36;100118.44;;;13.79;100.00
42633;BME280;28261;53.304;-6.284;2022-09-09T00:56:47;100115.78;;;13.79;100.00
42633;BME280;28261;53.304;-6.284;2022-09-09T00:59:03;100118.44;;;13.79;100.00
42633;BME280;28261;53.304;-6.284;2022-09-09T01:01:11;100118.44;;;13.79;100.00
42633;BME280;28261;53.304;-6.284;2022-09-09T01:03:33;100124.63;;;13.80;100.00
42633;BME280;28261;53.304;-6.284;2022-09-09T01:05:42;100119.44;;;13.78;100.00
42633;BME280;28261;53.304;-6.284;2022-09-09T01:07:49;100115.78;;;13.79;100.00
42633;BME280;28261;53.304;-6.284;2022-09-09T01:10:00;100117.44;;;13.80;100.00
42633;BME280;28261;53.304;-6.284;2022-09-09T01:12:11;100114.78;;;13.80;100.00
42633;BME280;28261;53.304;-6.284;2022-09-09T01:14:30;100108.63;;;13.80;100.00
42633;BME280;28261;53.304;-6.284;2022-09-09T01:16:37;100120.84;;;13.82;100.00
42633;BME280;28261;53.304;-6.284;2022-09-09T01:18:45;100112.97;;;13.81;100.00
42633;BME280;28261;53.304;-6.284;2022-09-09T01:20:56;100115.50;;;13.82;100.00
42633;BME280;28261;53.304;-6.284;2022-09-09T01:23:20;100110.19;;;13.82;100.00
42633;BME280;28261;53.304;-6.284;2022-09-09T01:26:20;100113.53;;;13.84;100.00
42633;BME280;28261;53.304;-6.284;2022-09-09T01:28:28;100115.22;;;13.85;100.00
42633;BME280;28261;53.304;-6.284;2022-09-09T01:30:39;100110.75;;;13.86;100.00
42633;BME280;28261;53.304;-6.284;2022-09-09T01:32:50;100116.91;;;13.86;100.00
42633;BME280;28261;53.304;-6.284;2022-09-09T01:34:54;100115.94;;;13.87;100.00
42633;BME280;28261;53.304;-6.284;2022-09-09T01:37:02;100113.28;;;13.87;100.00
42633;BME280;28261;53.304;-6.284;2022-09-09T01:39:07;100120.25;;;13.88;100.00
42633;BME280;28261;53.304;-6.284;2022-09-09T01:41:11;100120.25;;;13.88;100.00
42633;BME280;28261;53.304;-6.284;2022-09-09T01:43:24;100117.59;;;13.88;100.00
42633;BME280;28261;53.304;-6.284;2022-09-09T01:45:29;100119.28;;;13.90;100.00
42633;BME280;28261;53.304;-6.284;2022-09-09T01:47:34;100114.94;;;13.88;100.00
42633;BME280;28261;53.304;-6.284;2022-09-09T01:49:45;100113.97;;;13.90;100.00
42633;BME280;28261;53.304;-6.284;2022-09-09T01:51:56;100114.94;;;13.88;100.00
42633;BME280;28261;53.304;-6.284;2022-09-09T01:54:08;100114.81;;;13.90;100.00
42633;BME280;28261;53.304;-6.284;2022-09-09T01:56:21;100118.31;;;13.91;100.00
42633;BME280;28261;53.304;-6.284;2022-09-09T01:58:38;100112.16;;;13.90;100.00
42633;BME280;28261;53.304;-6.284;2022-09-09T02:00:54;100106.69;;;13.92;100.00
42633;BME280;28261;53.304;-6.284;2022-09-09T02:03:04;100103.16;;;13.91;100.00
42633;BME280;28261;53.304;-6.284;2022-09-09T02:05:27;100111.00;;;13.93;100.00
42633;BME280;28261;53.304;-6.284;2022-09-09T02:07:38;100096.84;;;13.92;100.00
42633;BME280;28261;53.304;-6.284;2022-09-09T02:10:00;100105.69;;;13.93;100.00
42633;BME280;28261;53.304;-6.284;2022-09-09T02:12:10;100100.22;;;13.94;100.00
42633;BME280;28261;53.304;-6.284;2022-09-09T02:14:25;100107.38;;;13.94;100.00
42633;BME280;28261;53.304;-6.284;2022-09-09T02:16:36;100105.69;;;13.93;100.00
42633;BME280;28261;53.304;-6.284;2022-09-09T02:18:46;100105.41;;;13.96;100.00
42633;BME280;28261;53.304;-6.284;2022-09-09T02:20:53;100103.59;;;13.96;100.00
42633;BME280;28261;53.304;-6.284;2022-09-09T02:22:58;100107.09;;;13.97;100.00
42633;BME280;28261;53.304;-6.284;2022-09-09T02:25:04;100103.44;;;13.98;100.00
42633;BME280;28261;53.304;-6.284;2022-09-09T02:27:09;100101.50;;;14.00;100.00
42633;BME280;28261;53.304;-6.284;2022-09-09T02:29:18;100104.84;;;14.02;100.00
42633;BME280;28261;53.304;-6.284;2022-09-09T02:31:25;100100.38;;;14.02;100.00
42633;BME280;28261;53.304;-6.284;2022-09-09T02:33:40;100101.06;;;14.04;100.00
42633;BME280;28261;53.304;-6.284;2022-09-09T02:35:45;100110.59;;;14.07;100.00
42633;BME280;28261;53.304;-6.284;2022-09-09T02:37:57;100104.28;;;14.08;100.00
42633;BME280;28261;53.304;-6.284;2022-09-09T02:40:03;100102.59;;;14.07;100.00
42633;BME280;28261;53.304;-6.284;2022-09-09T02:42:09;100107.94;;;14.07;100.00
42633;BME280;28261;53.304;-6.284;2022-09-09T02:44:15;100101.63;;;14.08;100.00
42633;BME280;28261;53.304;-6.284;2022-09-09T02:46:36;100102.31;;;14.10;100.00
42633;BME280;28261;53.304;-6.284;2022-09-09T02:48:50;100102.16;;;14.12;100.00
42633;BME280;28261;53.304;-6.284;2022-09-09T02:51:03;100095.88;;;14.13;100.00
42633;BME280;28261;53.304;-6.284;2022-09-09T02:53:16;100094.88;;;14.14;100.00
42633;BME280;28261;53.304;-6.284;2022-09-09T02:55:26;100098.38;;;14.14;100.00
42633;BME280;28261;53.304;-6.284;2022-09-09T02:57:35;100097.25;;;14.17;100.00
42633;BME280;28261;53.304;-6.284;2022-09-09T02:59:40;100096.44;;;14.16;100.00
42633;BME280;28261;53.304;-6.284;2022-09-09T03:01:45;100103.44;;;14.17;100.00
42633;BME280;28261;53.304;-6.284;2022-09-09T03:03:49;100097.13;;;14.18;100.00
42633;BME280;28261;53.304;-6.284;2022-09-09T03:05:53;100086.03;;;14.13;100.00
42633;BME280;28261;53.304;-6.284;2022-09-09T03:07:56;100087.28;;;14.09;100.00
42633;BME280;28261;53.304;-6.284;2022-09-09T03:10:01;100090.25;;;14.06;100.00
42633;BME280;28261;53.304;-6.284;2022-09-09T03:12:04;100089.72;;;14.02;100.00
42633;BME280;28261;53.304;-6.284;2022-09-09T03:14:09;100083.81;;;13.99;100.00
42633;BME280;28261;53.304;-6.284;2022-09-09T03:16:14;100075.09;;;13.97;100.00
42633;BME280;28261;53.304;-6.284;2022-09-09T03:18:23;100086.91;;;13.94;100.00
42633;BME280;28261;53.304;-6.284;2022-09-09T03:20:29;100083.53;;;13.92;100.00
42633;BME280;28261;53.304;-6.284;2022-09-09T03:22:34;100087.16;;;13.91;100.00
42633;BME280;28261;53.304;-6.284;2022-09-09T03:24:37;100076.50;;;13.91;100.00
42633;BME280;28261;53.304;-6.284;2022-09-09T03:26:41;100085.50;;;13.90;100.00
42633;BME280;28261;53.304;-6.284;2022-09-09T03:28:50;100077.53;;;13.90;100.00
42633;BME280;28261;53.304;-6.284;2022-09-09T03:30:59;100086.34;;;13.91;100.00
42633;BME280;28261;53.304;-6.284;2022-09-09T03:33:07;100081.00;;;13.91;100.00
42633;BME280;28261;53.304;-6.284;2022-09-09T03:35:14;100089.84;;;13.91;100.00
42633;BME280;28261;53.304;-6.284;2022-09-09T03:37:18;100094.34;;;13.91;100.00
42633;BME280;28261;53.304;-6.284;2022-09-09T03:39:24;100088.19;;;13.90;100.00
42633;BME280;28261;53.304;-6.284;2022-09-09T03:41:27;100083.97;;;13.87;100.00
42633;BME280;28261;53.304;-6.284;2022-09-09T03:43:33;100089.44;;;13.86;100.00
42633;BME280;28261;53.304;-6.284;2022-09-09T03:45:37;100085.22;;;13.83;100.00
42633;BME280;28261;53.304;-6.284;2022-09-09T03:47:40;100087.16;;;13.81;100.00
42633;BME280;28261;53.304;-6.284;2022-09-09T03:49:44;100089.16;;;13.79;100.00
42633;BME280;28261;53.304;-6.284;2022-09-09T03:51:50;100090.28;;;13.77;100.00
42633;BME280;28261;53.304;-6.284;2022-09-09T03:53:53;100086.75;;;13.76;100.00
42633;BME280;28261;53.304;-6.284;2022-09-09T03:56:00;100086.88;;;13.75;100.00
42633;BME280;28261;53.304;-6.284;2022-09-09T03:58:05;100089.53;;;13.75;100.00
42633;BME280;28261;53.304;-6.284;2022-09-09T04:00:10;100092.34;;;13.73;100.00
42633;BME280;28261;53.304;-6.284;2022-09-09T04:02:25;100103.97;;;13.72;100.00
42633;BME280;28261;53.304;-6.284;2022-09-09T04:04:29;100092.50;;;13.71;100.00
42633;BME280;28261;53.304;-6.284;2022-09-09T04:06:33;100099.78;;;13.69;100.00
42633;BME280;28261;53.304;-6.284;2022-09-09T04:08:38;100100.78;;;13.68;100.00
42633;BME280;28261;53.304;-6.284;2022-09-09T04:10:44;100094.72;;;13.66;100.00
42633;BME280;28261;53.304;-6.284;2022-09-09T04:12:50;100093.91;;;13.66;100.00
42633;BME280;28261;53.304;-6.284;2022-09-09T04:14:56;100093.03;;;13.65;100.00
42633;BME280;28261;53.304;-6.284;2022-09-09T04:17:00;100089.53;;;13.65;100.00
42633;BME280;28261;53.304;-6.284;2022-09-09T04:19:06;100092.22;;;13.65;100.00
42633;BME280;28261;53.304;-6.284;2022-09-09T04:21:11;100093.19;;;13.64;100.00
42633;BME280;28261;53.304;-6.284;2022-09-09T04:23:15;100095.84;;;13.64;100.00
42633;BME280;28261;53.304;-6.284;2022-09-09T04:25:22;100098.50;;;13.64;100.00
42633;BME280;28261;53.304;-6.284;2022-09-09T04:27:26;100102.19;;;13.63;100.00
42633;BME280;28261;53.304;-6.284;2022-09-09T04:29:30;100099.75;;;13.60;100.00
42633;BME280;28261;53.304;-6.284;2022-09-09T04:31:34;100106.78;;;13.61;100.00
42633;BME280;28261;53.304;-6.284;2022-09-09T04:33:37;100106.78;;;13.61;100.00
42633;BME280;28261;53.304;-6.284;2022-09-09T04:35:44;100112.94;;;13.61;100.00
42633;BME280;28261;53.304;-6.284;2022-09-09T04:37:49;100108.47;;;13.62;100.00
42633;BME280;28261;53.304;-6.284;2022-09-09T04:39:53;100101.47;;;13.61;100.00
42633;BME280;28261;53.304;-6.284;2022-09-09T04:41:59;100100.47;;;13.62;100.00
42633;BME280;28261;53.304;-6.284;2022-09-09T04:44:02;100103.16;;;13.62;100.00
42633;BME280;28261;53.304;-6.284;2022-09-09T04:46:07;100103.16;;;13.62;100.00
42633;BME280;28261;53.304;-6.284;2022-09-09T04:48:11;100102.28;;;13.61;100.00
42633;BME280;28261;53.304;-6.284;2022-09-09T04:50:15;100108.63;;;13.60;100.00
42633;BME280;28261;53.304;-6.284;2022-09-09T04:52:21;100107.75;;;13.60;100.00
42633;BME280;28261;53.304;-6.284;2022-09-09T04:54:24;100101.59;;;13.59;100.00
42633;BME280;28261;53.304;-6.284;2022-09-09T04:56:29;100102.56;;;13.58;100.00
42633;BME280;28261;53.304;-6.284;2022-09-09T04:58:37;100101.75;;;13.58;100.00
42633;BME280;28261;53.304;-6.284;2022-09-09T05:00:41;100095.56;;;13.57;100.00
42633;BME280;28261;53.304;-6.284;2022-09-09T05:02:45;100106.19;;;13.57;100.00
42633;BME280;28261;53.304;-6.284;2022-09-09T05:04:50;100101.75;;;13.58;100.00
42633;BME280;28261;53.304;-6.284;2022-09-09T05:06:53;100107.06;;;13.58;100.00
42633;BME280;28261;53.304;-6.284;2022-09-09T05:08:58;100102.72;;;13.57;100.00
42633;BME280;28261;53.304;-6.284;2022-09-09T05:11:04;100110.69;;;13.57;100.00
42633;BME280;28261;53.304;-6.284;2022-09-09T05:13:08;100107.34;;;13.54;100.00
42633;BME280;28261;53.304;-6.284;2022-09-09T05:15:13;100109.16;;;13.54;100.00
42633;BME280;28261;53.304;-6.284;2022-09-09T05:17:16;100107.34;;;13.54;100.00
42633;BME280;28261;53.304;-6.284;2022-09-09T05:19:20;100103.81;;;13.54;100.00
42633;BME280;28261;53.304;-6.284;2022-09-09T05:21:25;100105.66;;;13.53;100.00
42633;BME280;28261;53.304;-6.284;2022-09-09T05:23:29;100103.00;;;13.53;100.00
42633;BME280;28261;53.304;-6.284;2022-09-09T05:25:33;100100.34;;;13.53;100.00
42633;BME280;28261;53.304;-6.284;2022-09-09T05:27:37;100106.63;;;13.52;100.00
42633;BME280;28261;53.304;-6.284;2022-09-09T05:29:41;100115.44;;;13.53;100.00
42633;BME280;28261;53.304;-6.284;2022-09-09T05:31:49;100114.63;;;13.52;100.00
42633;BME280;28261;53.304;-6.284;2022-09-09T05:33:55;100107.47;;;13.53;100.00
42633;BME280;28261;53.304;-6.284;2022-09-09T05:35:59;100110.97;;;13.53;100.00
42633;BME280;28261;53.304;-6.284;2022-09-09T05:38:04;100110.00;;;13.54;100.00
42633;BME280;28261;53.304;-6.284;2022-09-09T05:40:09;100115.34;;;13.54;100.00
42633;BME280;28261;53.304;-6.284;2022-09-09T05:42:14;100112.69;;;13.54;100.00
42633;BME280;28261;53.304;-6.284;2022-09-09T05:44:18;100119.66;;;13.56;100.00
42633;BME280;28261;53.304;-6.284;2022-09-09T05:46:22;100114.34;;;13.56;100.00
42633;BME280;28261;53.304;-6.284;2022-09-09T05:48:30;100117.72;;;13.58;100.00
42633;BME280;28261;53.304;-6.284;2022-09-09T05:50:34;100121.22;;;13.58;100.00
42633;BME280;28261;53.304;-6.284;2022-09-09T05:52:37;100125.72;;;13.58;100.00
42633;BME280;28261;53.304;-6.284;2022-09-09T05:54:41;100120.53;;;13.56;100.00
42633;BME280;28261;53.304;-6.284;2022-09-09T05:56:45;100133.69;;;13.58;100.00
42633;BME280;28261;53.304;-6.284;2022-09-09T05:58:54;100139.03;;;13.58;100.00
42633;BME280;28261;53.304;-6.284;2022-09-09T06:01:03;100135.50;;;13.57;100.00
42633;BME280;28261;53.304;-6.284;2022-09-09T06:03:06;100139.03;;;13.58;100.00
42633;BME280;28261;53.304;-6.284;2022-09-09T06:05:14;100147.69;;;13.60;100.00
42633;BME280;28261;53.304;-6.284;2022-09-09T06:07:18;100145.19;;;13.58;100.00
42633;BME280;28261;53.304;-6.284;2022-09-09T06:09:21;100147.69;;;13.60;100.00
42633;BME280;28261;53.304;-6.284;2022-09-09T06:11:27;100148.44;;;13.62;100.00
42633;BME280;28261;53.304;-6.284;2022-09-09T06:13:34;100150.13;;;13.63;100.00
42633;BME280;28261;53.304;-6.284;2022-09-09T06:15:39;100152.50;;;13.66;100.00
42633;BME280;28261;53.304;-6.284;2022-09-09T06:17:54;100155.03;;;13.67;100.00
42633;BME280;28261;53.304;-6.284;2022-09-09T06:19:58;100154.88;;;13.69;100.00
42633;BME280;28261;53.304;-6.284;2022-09-09T06:22:06;100160.94;;;13.71;100.00
42633;BME280;28261;53.304;-6.284;2022-09-09T06:24:11;100158.13;;;13.73;100.00
42633;BME280;28261;53.304;-6.284;2022-09-09T06:26:20;100157.25;;;13.72;100.00
42633;BME280;28261;53.304;-6.284;2022-09-09T06:28:25;100161.63;;;13.73;100.00
42633;BME280;28261;53.304;-6.284;2022-09-09T06:30:28;100167.66;;;13.75;100.00
42633;BME280;28261;53.304;-6.284;2022-09-09T06:32:32;100170.19;;;13.77;100.00
42633;BME280;28261;53.304;-6.284;2022-09-09T06:34:38;100169.19;;;13.78;100.00
42633;BME280;28261;53.304;-6.284;2022-09-09T06:36:42;100174.41;;;13.79;100.00
42633;BME280;28261;53.304;-6.284;2022-09-09T06:38:47;100171.44;;;13.82;100.00
42633;BME280;28261;53.304;-6.284;2022-09-09T06:40:52;100176.63;;;13.84;100.00
42633;BME280;28261;53.304;-6.284;2022-09-09T06:42:59;100180.03;;;13.86;100.00
42633;BME280;28261;53.304;-6.284;2022-09-09T06:45:10;100183.22;;;13.90;100.00
42633;BME280;28261;53.304;-6.284;2022-09-09T06:47:22;100186.34;;;13.95;100.00
42633;BME280;28261;53.304;-6.284;2022-09-09T06:49:27;100189.69;;;13.97;100.00
42633;BME280;28261;53.304;-6.284;2022-09-09T06:51:32;100188.44;;;14.01;100.00
42633;BME280;28261;53.304;-6.284;2022-09-09T06:53:39;100195.44;;;14.02;100.00
42633;BME280;28261;53.304;-6.284;2022-09-09T06:55:46;100189.97;;;14.03;100.00
42633;BME280;28261;53.304;-6.284;2022-09-09T06:57:52;100195.16;;;14.05;100.00
42633;BME280;28261;53.304;-6.284;2022-09-09T06:59:57;100199.53;;;14.06;100.00
42633;BME280;28261;53.304;-6.284;2022-09-09T07:02:00;100205.72;;;14.07;100.00
42633;BME280;28261;53.304;-6.284;2022-09-09T07:04:05;100211.75;;;14.09;100.00
42633;BME280;28261;53.304;-6.284;2022-09-09T07:06:14;100207.94;;;14.11;100.00
42633;BME280;28261;53.304;-6.284;2022-09-09T07:08:19;100208.66;;;14.13;100.00
42633;BME280;28261;53.304;-6.284;2022-09-09T07:10:23;100208.66;;;14.13;100.00
42633;BME280;28261;53.304;-6.284;2022-09-09T07:12:28;100208.38;;;14.16;100.00
42633;BME280;28261;53.304;-6.284;2022-09-09T07:14:33;100220.47;;;14.20;100.00
42633;BME280;28261;53.304;-6.284;2022-09-09T07:16:42;100228.88;;;14.26;100.00
42633;BME280;28261;53.304;-6.284;2022-09-09T07:18:47;100227.63;;;14.30;100.00
42633;BME280;28261;53.304;-6.284;2022-09-09T07:20:53;100230.00;;;14.33;100.00
42633;BME280;28261;53.304;-6.284;2022-09-09T07:22:59;100234.06;;;14.37;100.00
42633;BME280;28261;53.304;-6.284;2022-09-09T07:25:03;100239.13;;;14.40;100.00
42633;BME280;28261;53.304;-6.284;2022-09-09T07:27:07;100239.94;;;14.41;100.00
42633;BME280;28261;53.304;-6.284;2022-09-09T07:29:13;100244.16;;;14.43;100.00
42633;BME280;28261;53.304;-6.284;2022-09-09T07:31:23;100242.06;;;14.47;100.00
42633;BME280;28261;53.304;-6.284;2022-09-09T07:33:29;100246.97;;;14.51;100.00
42633;BME280;28261;53.304;-6.284;2022-09-09T07:35:34;100250.06;;;14.56;100.00
42633;BME280;28261;53.304;-6.284;2022-09-09T07:37:39;100251.75;;;14.58;100.00
42633;BME280;28261;53.304;-6.284;2022-09-09T07:39:44;100254.91;;;14.63;100.00
42633;BME280;28261;53.304;-6.284;2022-09-09T07:41:48;100257.28;;;14.66;100.00
42633;BME280;28261;53.304;-6.284;2022-09-09T07:43:56;100252.75;;;14.66;100.00
42633;BME280;28261;53.304;-6.284;2022-09-09T07:46:01;100253.88;;;14.64;100.00
42633;BME280;28261;53.304;-6.284;2022-09-09T07:48:05;100263.59;;;14.65;100.00
42633;BME280;28261;53.304;-6.284;2022-09-09T07:50:09;100265.28;;;14.66;100.00
42633;BME280;28261;53.304;-6.284;2022-09-09T07:52:13;100266.69;;;14.70;100.00
42633;BME280;28261;53.304;-6.284;2022-09-09T07:54:24;100273.41;;;14.74;100.00
42633;BME280;28261;53.304;-6.284;2022-09-09T07:56:30;100274.53;;;14.81;100.00
42633;BME280;28261;53.304;-6.284;2022-09-09T07:58:36;100280.00;;;14.89;100.00
42633;BME280;28261;53.304;-6.284;2022-09-09T08:00:41;100277.75;;;14.95;100.00
42633;BME280;28261;53.304;-6.284;2022-09-09T08:02:48;100282.09;;;14.96;100.00
42633;BME280;28261;53.304;-6.284;2022-09-09T08:04:52;100292.50;;;14.99;100.00
42633;BME280;28261;53.304;-6.284;2022-09-09T08:06:57;100293.91;;;15.03;100.00
42633;BME280;28261;53.304;-6.284;2022-09-09T08:09:04;100303.00;;;15.10;100.00
42633;BME280;28261;53.304;-6.284;2022-09-09T08:11:11;100296.81;;;15.19;100.00
42633;BME280;28261;53.304;-6.284;2022-09-09T08:13:17;100299.31;;;15.31;100.00
42633;BME280;28261;53.304;-6.284;2022-09-09T08:15:22;100302.66;;;15.43;100.00
42633;BME280;28261;53.304;-6.284;2022-09-09T08:17:26;100301.66;;;15.53;100.00
42633;BME280;28261;53.304;-6.284;2022-09-09T08:19:32;100309.22;;;15.68;100.00
42633;BME280;28261;53.304;-6.284;2022-09-09T08:21:43;100315.22;;;15.80;100.00
42633;BME280;28261;53.304;-6.284;2022-09-09T08:23:49;100317.16;;;15.87;100.00
42633;BME280;28261;53.304;-6.284;2022-09-09T08:26:04;100316.56;;;15.94;100.00
42633;BME280;28261;53.304;-6.284;2022-09-09T08:28:09;100317.69;;;16.01;100.00
42633;BME280;28261;53.304;-6.284;2022-09-09T08:30:14;100328.16;;;16.12;100.00
42633;BME280;28261;53.304;-6.284;2022-09-09T08:32:17;100318.28;;;16.22;100.00
42633;BME280;28261;53.304;-6.284;2022-09-09T08:34:22;100329.59;;;16.34;100.00
42633;BME280;28261;53.304;-6.284;2022-09-09T08:36:29;100332.34;;;16.42;100.00
42633;BME280;28261;53.304;-6.284;2022-09-09T08:38:36;100338.00;;;16.39;100.00
42633;BME280;28261;53.304;-6.284;2022-09-09T08:40:42;100337.75;;;16.33;100.00
42633;BME280;28261;53.304;-6.284;2022-09-09T08:42:54;100335.81;;;16.25;100.00
42633;BME280;28261;53.304;-6.284;2022-09-09T08:45:22;100334.19;;;16.14;100.00
42633;BME280;28261;53.304;-6.284;2022-09-09T08:47:37;100333.41;;;16.04;100.00
42633;BME280;28261;53.304;-6.284;2022-09-09T08:50:00;100341.03;;;15.99;100.00
42633;BME280;28261;53.304;-6.284;2022-09-09T08:52:15;100346.53;;;15.97;100.00
42633;BME280;28261;53.304;-6.284;2022-09-09T08:54:21;100346.94;;;16.02;100.00
42633;BME280;28261;53.304;-6.284;2022-09-09T08:56:46;100349.88;;;16.09;100.00
42633;BME280;28261;53.304;-6.284;2022-09-09T08:58:52;100348.56;;;16.13;100.00
42633;BME280;28261;53.304;-6.284;2022-09-09T09:01:29;100358.66;;;16.19;100.00
42633;BME280;28261;53.304;-6.284;2022-09-09T09:03:46;100358.09;;;16.26;100.00
42633;BME280;28261;53.304;-6.284;2022-09-09T09:05:59;100366.50;;;16.31;100.00
42633;BME280;28261;53.304;-6.284;2022-09-09T09:08:15;100372.84;;;16.30;100.00
42633;BME280;28261;53.304;-6.284;2022-09-09T09:10:34;100373.25;;;16.35;100.00
42633;BME280;28261;53.304;-6.284;2022-09-09T09:12:47;100375.75;;;16.36;100.00
42633;BME280;28261;53.304;-6.284;2022-09-09T09:14:54;100378.72;;;16.33;100.00
42633;BME280;28261;53.304;-6.284;2022-09-09T09:17:01;100383.53;;;16.30;100.00
42633;BME280;28261;53.304;-6.284;2022-09-09T09:19:08;100390.84;;;16.28;100.00
42633;BME280;28261;53.304;-6.284;2022-09-09T09:21:23;100392.69;;;16.27;100.00
42633;BME280;28261;53.304;-6.284;2022-09-09T09:23:35;100404.53;;;16.24;100.00
42633;BME280;28261;53.304;-6.284;2022-09-09T09:25:42;100395.69;;;16.24;100.00
42633;BME280;28261;53.304;-6.284;2022-09-09T09:27:56;100401.19;;;16.22;100.00
42633;BME280;28261;53.304;-6.284;2022-09-09T09:30:14;100406.81;;;16.19;100.00
42633;BME280;28261;53.304;-6.284;2022-09-09T09:32:33;100406.53;;;16.22;100.00
42633;BME280;28261;53.304;-6.284;2022-09-09T09:34:40;100404.94;;;16.30;100.00
42633;BME280;28261;53.304;-6.284;2022-09-09T09:36:51;100413.38;;;16.35;100.00
42633;BME280;28261;53.304;-6.284;2022-09-09T09:38:59;100415.03;;;16.36;100.00
42633;BME280;28261;53.304;-6.284;2022-09-09T09:41:31;100421.09;;;16.38;100.00
42633;BME280;28261;53.304;-6.284;2022-09-09T09:43:40;100427.28;;;16.38;100.00
42633;BME280;28261;53.304;-6.284;2022-09-09T09:45:50;100434.88;;;16.43;100.00
42633;BME280;28261;53.304;-6.284;2022-09-09T09:48:14;100425.84;;;16.44;100.00
42633;BME280;28261;53.304;-6.284;2022-09-09T09:50:20;100437.41;;;16.45;100.00
42633;BME280;28261;53.304;-6.284;2022-09-09T09:52:28;100439.91;;;16.46;100.00
42633;BME280;28261;53.304;-6.284;2022-09-09T09:54:41;100431.44;;;16.51;100.00
42633;BME280;28261;53.304;-6.284;2022-09-09T09:56:46;100439.19;;;16.54;100.00
42633;BME280;28261;53.304;-6.284;2022-09-09T09:58:54;100444.91;;;16.59;100.00
42633;BME280;28261;53.304;-6.284;2022-09-09T10:01:21;100445.78;;;16.60;100.00
42633;BME280;28261;53.304;-6.284;2022-09-09T10:03:29;100446.13;;;16.65;100.00
42633;BME280;28261;53.304;-6.284;2022-09-09T10:05:36;100436.97;;;16.67;100.00
42633;BME280;28261;53.304;-6.284;2022-09-09T10:07:44;100442.06;;;16.70;100.00
42633;BME280;28261;53.304;-6.284;2022-09-09T10:09:53;100449.63;;;16.75;100.00
42633;BME280;28261;53.304;-6.284;2022-09-09T10:12:02;100456.66;;;16.76;100.00
42633;BME280;28261;53.304;-6.284;2022-09-09T10:14:19;100460.03;;;16.78;100.00
42633;BME280;28261;53.304;-6.284;2022-09-09T10:16:37;100452.38;;;16.83;100.00
42633;BME280;28261;53.304;-6.284;2022-09-09T10:18:50;100451.53;;;16.92;100.00
42633;BME280;28261;53.304;-6.284;2022-09-09T10:21:03;100456.25;;;16.99;100.00
42633;BME280;28261;53.304;-6.284;2022-09-09T10:23:21;100460.16;;;17.04;100.00
42633;BME280;28261;53.304;-6.284;2022-09-09T10:25:49;100457.47;;;17.04;100.00
42633;BME280;28261;53.304;-6.284;2022-09-09T10:28:13;100463.69;;;17.05;100.00
42633;BME280;28261;53.304;-6.284;2022-09-09T10:30:23;100468.06;;;17.06;100.00
42633;BME280;28261;53.304;-6.284;2022-09-09T10:32:37;100469.72;;;17.07;99.99
42633;BME280;28261;53.304;-6.284;2022-09-09T10:34:53;100477.47;;;17.10;98.44
42633;BME280;28261;53.304;-6.284;2022-09-09T10:37:00;100476.63;;;17.09;98.71
42633;BME280;28261;53.304;-6.284;2022-09-09T10:39:18;100476.19;;;17.14;98.16
42633;BME280;28261;53.304;-6.284;2022-09-09T10:41:40;100474.72;;;17.20;98.70
42633;BME280;28261;53.304;-6.284;2022-09-09T10:44:06;100473.81;;;17.29;98.21
42633;BME280;28261;53.304;-6.284;2022-09-09T10:46:21;100477.41;;;17.38;97.28
42633;BME280;28261;53.304;-6.284;2022-09-09T10:48:36;100486.66;;;17.43;96.00
42633;BME280;28261;53.304;-6.284;2022-09-09T10:50:50;100489.81;;;17.57;96.24
42633;BME280;28261;53.304;-6.284;2022-09-09T10:53:13;100483.69;;;17.65;95.38
42633;BME280;28261;53.304;-6.284;2022-09-09T10:55:20;100485.13;;;17.77;94.57
42633;BME280;28261;53.304;-6.284;2022-09-09T10:57:36;100485.47;;;17.82;94.34